createdAt,value
2023-05-14T00:01:33.983Z,91931.50
2023-05-14T00:04:38.026Z,91927.38
2023-05-14T00:07:41.883Z,91922.13
2023-05-14T00:10:45.548Z,91921.47
2023-05-14T00:13:51.208Z,91917.16
2023-05-14T00:16:54.442Z,91909.72
2023-05-14T00:19:58.392Z,91912.94
2023-05-14T00:23:02.143Z,91908.03
2023-05-14T00:26:05.489Z,91901.84
2023-05-14T00:29:09.376Z,91901.56
2023-05-14T00:32:12.832Z,91882.47
2023-05-14T00:35:16.830Z,91895.28
2023-05-14T00:38:20.696Z,91903.16
2023-05-14T00:41:24.738Z,91889.34
2023-05-14T00:44:28.558Z,91891.66
2023-05-14T00:47:32.845Z,91895.94
2023-05-14T00:50:36.653Z,91899.59
2023-05-14T00:53:41.042Z,91898.94
2023-05-14T00:56:46.927Z,91891.53
2023-05-14T00:59:51.690Z,91896.50
2023-05-14T01:02:54.876Z,91895.19
2023-05-14T01:06:36.030Z,91897.03
2023-05-14T01:09:54.675Z,91891.16
2023-05-14T01:13:00.897Z,91889.25
2023-05-14T01:16:05.641Z,91889.44
2023-05-14T01:19:23.233Z,91871.22
2023-05-14T01:22:27.026Z,91866.84
2023-05-14T01:25:32.006Z,91873.09
2023-05-14T01:28:38.341Z,91870.81
2023-05-14T01:31:44.989Z,91871.00
2023-05-14T01:34:49.438Z,91877.28
2023-05-14T01:37:59.597Z,91876.50
2023-05-14T01:41:04.978Z,91870.25
2023-05-14T01:44:11.045Z,91863.09
2023-05-14T01:47:17.386Z,91858.94
2023-05-14T01:50:21.526Z,91839.81
2023-05-14T01:53:26.054Z,91836.41
2023-05-14T01:56:29.270Z,91843.78
2023-05-14T01:59:32.963Z,91835.44
2023-05-14T02:02:36.494Z,91834.25
2023-05-14T02:05:39.756Z,91836.88
2023-05-14T02:08:42.842Z,91842.66
2023-05-14T02:11:46.247Z,91841.09
2023-05-14T02:14:49.895Z,91838.50
2023-05-14T02:17:53.572Z,91842.03
2023-05-14T02:20:58.396Z,91859.66
2023-05-14T02:24:02.197Z,91857.66
2023-05-14T02:27:07.276Z,91860.13
2023-05-14T02:30:12.073Z,91859.72
2023-05-14T02:33:16.540Z,91871.00
2023-05-14T02:36:20.543Z,91862.31
2023-05-14T02:39:24.319Z,91874.03
2023-05-14T02:42:28.080Z,91883.31
2023-05-14T02:45:32.759Z,91886.34
2023-05-14T02:48:35.966Z,91874.94
2023-05-14T02:51:39.599Z,91890.38
2023-05-14T02:54:42.956Z,91890.31
2023-05-14T02:57:47.940Z,91903.81
2023-05-14T03:00:52.199Z,91908.13
2023-05-14T03:03:56.657Z,91915.47
2023-05-14T03:07:00.735Z,91923.41
2023-05-14T03:10:04.807Z,91937.34
2023-05-14T03:13:08.912Z,91929.38
2023-05-14T03:16:12.728Z,91931.50
2023-05-14T03:19:16.498Z,91920.84
2023-05-14T03:22:20.439Z,91920.81
2023-05-14T03:25:24.286Z,91921.97
2023-05-14T03:28:28.008Z,91933.22
2023-05-14T03:31:32.215Z,91933.25
2023-05-14T03:34:36.740Z,91935.38
2023-05-14T03:37:40.438Z,91932.00
2023-05-14T03:40:46.511Z,91931.97
2023-05-14T03:43:49.984Z,91936.59
2023-05-14T03:46:54.207Z,91936.56
2023-05-14T03:49:58.469Z,91925.22
2023-05-14T03:53:02.736Z,91931.22
2023-05-14T03:56:06.697Z,91933.91
2023-05-14T03:59:10.908Z,91944.50
2023-05-14T04:02:14.638Z,91955.75
2023-05-14T04:05:18.453Z,91940.88
2023-05-14T04:08:22.051Z,91935.56
2023-05-14T04:11:28.794Z,91929.81
2023-05-14T04:14:33.959Z,91943.28
2023-05-14T04:17:37.107Z,91936.66
2023-05-14T04:20:41.091Z,91939.84
2023-05-14T04:23:44.455Z,91944.44
2023-05-14T04:26:48.093Z,91942.19
2023-05-14T04:29:52.170Z,91947.41
2023-05-14T04:32:56.336Z,91954.25
2023-05-14T04:36:00.556Z,91946.94
2023-05-14T04:39:04.720Z,91944.81
2023-05-14T04:42:09.108Z,91950.88
2023-05-14T04:45:14.060Z,91948.88
2023-05-14T04:48:18.133Z,91947.63
2023-05-14T04:51:21.848Z,91948.94
2023-05-14T04:54:26.166Z,91953.66
2023-05-14T04:57:29.826Z,91961.28
2023-05-14T05:00:34.289Z,91960.03
2023-05-14T05:03:37.992Z,91962.78
2023-05-14T05:06:41.994Z,91962.16
2023-05-14T05:09:45.898Z,91959.00
2023-05-14T05:12:49.997Z,91969.22
2023-05-14T05:15:53.821Z,91967.28
2023-05-14T05:18:58.130Z,91963.38
2023-05-14T05:22:01.262Z,91963.44
2023-05-14T05:25:09.090Z,91956.16
2023-05-14T05:28:12.661Z,91949.50
2023-05-14T05:31:18.269Z,91948.16
2023-05-14T05:34:23.560Z,91944.16
2023-05-14T05:37:27.315Z,91934.81
2023-05-14T05:40:30.876Z,91936.84
2023-05-14T05:43:35.076Z,91948.16
2023-05-14T05:46:38.867Z,91936.81
2023-05-14T05:49:42.879Z,91932.16
2023-05-14T05:52:46.698Z,91927.47
2023-05-14T05:55:52.377Z,91924.81
2023-05-14T05:58:56.802Z,91925.50
2023-05-14T06:02:00.306Z,91918.16
2023-05-14T06:05:04.329Z,91917.50
2023-05-14T06:08:08.222Z,91916.78
2023-05-14T06:11:11.412Z,91915.84
2023-05-14T06:14:15.457Z,91907.22
2023-05-14T06:17:19.215Z,91919.13
2023-05-14T06:20:23.528Z,91913.06
2023-05-14T06:23:27.637Z,91896.88
2023-05-14T06:26:31.772Z,91908.25
2023-05-14T06:29:35.465Z,91905.94
2023-05-14T06:32:39.395Z,91890.94
2023-05-14T06:35:43.146Z,91883.47
2023-05-14T06:38:48.179Z,91874.91
2023-05-14T06:41:51.921Z,91887.13
2023-05-14T06:44:55.705Z,91878.59
2023-05-14T06:47:58.958Z,91883.19
2023-05-14T06:51:03.899Z,91876.50
2023-05-14T06:54:07.595Z,91878.19
2023-05-14T06:57:11.125Z,91875.22
2023-05-14T07:00:16.109Z,91876.44
2023-05-14T07:03:19.938Z,91866.66
2023-05-14T07:06:24.149Z,91849.31
2023-05-14T07:09:28.026Z,91838.72
2023-05-14T07:12:31.732Z,91839.03
2023-05-14T07:15:35.121Z,91837.06
2023-05-14T07:18:39.104Z,91823.19
2023-05-14T07:22:30.792Z,91809.84
2023-05-14T07:25:34.491Z,91798.72
2023-05-14T07:28:37.662Z,91804.03
2023-05-14T07:31:41.206Z,91803.81
2023-05-14T07:34:45.582Z,91808.31
2023-05-14T07:37:48.752Z,91798.41
2023-05-14T07:40:51.912Z,91807.91
2023-05-14T07:43:55.001Z,91803.38
2023-05-14T07:46:58.029Z,91803.16
2023-05-14T07:50:01.517Z,91771.03
2023-05-14T07:53:05.380Z,91778.53
2023-05-14T07:56:09.580Z,91769.13
2023-05-14T07:59:12.607Z,91765.28
2023-05-14T08:02:17.567Z,91756.22
2023-05-14T08:05:21.095Z,91762.97
2023-05-14T08:08:24.840Z,91758.88
2023-05-14T08:11:28.589Z,91754.16
2023-05-14T08:14:32.307Z,91764.16
2023-05-14T08:17:37.004Z,91768.63
2023-05-14T08:20:40.480Z,91771.13
2023-05-14T08:23:44.782Z,91776.50
2023-05-14T08:26:47.992Z,91752.19
2023-05-14T08:29:51.990Z,91752.50
2023-05-14T08:32:55.312Z,91752.88
2023-05-14T08:36:00.985Z,91761.69
2023-05-14T08:39:04.148Z,91763.91
2023-05-14T08:42:08.805Z,91766.72
2023-05-14T08:45:14.976Z,91753.84
2023-05-14T08:48:22.028Z,91768.91
2023-05-14T08:51:27.408Z,91752.78
2023-05-14T08:54:33.069Z,91762.88
2023-05-14T08:57:37.006Z,91756.78
2023-05-14T09:00:40.111Z,91756.34
2023-05-14T09:03:44.471Z,91751.69
2023-05-14T09:06:50.557Z,91754.75
2023-05-14T09:09:54.322Z,91777.31
2023-05-14T09:12:57.687Z,91770.38
2023-05-14T09:16:01.953Z,91778.94
2023-05-14T09:19:08.023Z,91771.38
2023-05-14T09:22:14.248Z,91761.91
2023-05-14T09:25:17.737Z,91764.41
2023-05-14T09:28:23.828Z,91779.66
2023-05-14T09:31:27.117Z,91784.56
2023-05-14T09:34:33.104Z,91793.63
2023-05-14T09:37:37.579Z,91765.53
2023-05-14T09:40:41.720Z,91774.88
2023-05-14T09:43:45.318Z,91791.03
2023-05-14T09:46:50.114Z,91788.72
2023-05-14T09:49:53.977Z,91789.97
2023-05-14T09:52:58.040Z,91786.38
2023-05-14T09:56:01.849Z,91798.34
2023-05-14T09:59:06.645Z,91790.50
2023-05-14T10:02:21.534Z,91799.47
2023-05-14T10:05:27.728Z,91798.72
2023-05-14T10:08:36.656Z,91807.16
2023-05-14T10:11:45.000Z,91813.25
2023-05-14T10:14:53.758Z,91834.44
2023-05-14T10:18:01.614Z,91813.69
2023-05-14T10:21:06.856Z,91820.28
2023-05-14T10:24:11.975Z,91821.66
2023-05-14T10:27:17.653Z,91826.38
2023-05-14T10:30:26.242Z,91816.84
2023-05-14T10:33:30.331Z,91814.34
2023-05-14T10:36:34.414Z,91825.53
2023-05-14T10:39:54.334Z,91827.44
2023-05-14T10:43:00.334Z,91828.56
2023-05-14T10:46:03.637Z,91835.56
2023-05-14T10:49:06.856Z,91832.78
2023-05-14T10:52:11.673Z,91837.00
2023-05-14T10:55:17.104Z,91842.94
2023-05-14T10:58:22.101Z,91847.72
2023-05-14T11:01:29.488Z,91851.28
2023-05-14T11:04:32.939Z,91862.00
2023-05-14T11:07:42.027Z,91863.41
2023-05-14T11:10:47.423Z,91871.69
2023-05-14T11:13:52.689Z,91869.19
2023-05-14T11:16:56.219Z,91867.91
2023-05-14T11:20:00.822Z,91890.59
2023-05-14T11:23:04.108Z,91891.44
2023-05-14T11:26:08.218Z,91883.50
2023-05-14T11:29:11.482Z,91888.81
2023-05-14T11:32:16.491Z,91890.16
2023-05-14T11:35:19.474Z,91896.13
2023-05-14T11:38:23.798Z,91899.50
2023-05-14T11:41:28.733Z,91918.81
2023-05-14T11:44:33.242Z,91922.13
2023-05-14T11:47:36.350Z,91922.75
2023-05-14T11:50:39.418Z,91927.94
2023-05-14T11:53:43.225Z,91922.50
2023-05-14T11:56:52.299Z,91931.78
2023-05-14T11:59:59.861Z,91933.59
2023-05-14T12:03:04.345Z,91948.66
2023-05-14T12:06:08.767Z,91947.22
2023-05-14T12:09:14.077Z,91951.13
2023-05-14T12:12:22.602Z,91962.91
2023-05-14T12:15:27.687Z,91958.13
2023-05-14T12:18:33.098Z,91963.84
2023-05-14T12:21:37.562Z,91978.25
2023-05-14T12:24:41.757Z,91974.13
2023-05-14T12:27:46.537Z,91987.22
2023-05-14T12:30:56.984Z,91985.78
2023-05-14T12:34:01.073Z,91996.34
2023-05-14T12:37:05.599Z,92005.38
2023-05-14T12:40:12.401Z,92009.22
2023-05-14T12:43:16.258Z,92001.66
2023-05-14T12:46:20.543Z,92007.47
2023-05-14T12:49:24.046Z,92011.44
2023-05-14T12:52:37.436Z,92023.25
2023-05-14T12:55:41.311Z,92013.63
2023-05-14T12:58:47.628Z,92022.09
2023-05-14T13:01:51.274Z,92023.97
2023-05-14T13:04:55.180Z,92021.75
2023-05-14T13:08:01.250Z,92021.13
2023-05-14T13:11:05.454Z,92023.72
2023-05-14T13:14:09.206Z,92031.53
2023-05-14T13:17:12.579Z,92024.06
2023-05-14T13:20:18.490Z,92024.09
2023-05-14T13:23:22.649Z,92028.59
2023-05-14T13:26:28.792Z,92022.44
2023-05-14T13:29:32.913Z,92025.88
2023-05-14T13:32:36.596Z,92031.34
2023-05-14T13:35:40.581Z,92026.75
2023-05-14T13:38:46.369Z,92032.19
2023-05-14T13:41:51.690Z,92038.59
2023-05-14T13:44:56.818Z,92041.09
2023-05-14T13:48:00.259Z,92035.22
2023-05-14T13:51:04.214Z,92033.31
2023-05-14T13:54:08.329Z,92036.34
2023-05-14T13:57:12.192Z,92034.13
2023-05-14T14:00:16.752Z,92043.41
2023-05-14T14:03:22.326Z,92043.81
2023-05-14T14:06:30.507Z,92049.91
2023-05-14T14:09:36.532Z,92048.53
2023-05-14T14:12:40.586Z,92041.66
2023-05-14T14:15:44.926Z,92043.06
2023-05-14T14:18:49.016Z,92045.06
2023-05-14T14:21:52.405Z,92034.91
2023-05-14T14:24:56.696Z,92039.69
2023-05-14T14:28:00.678Z,92030.59
2023-05-14T14:31:04.813Z,92025.44
2023-05-14T14:34:08.609Z,92031.25
2023-05-14T14:37:12.773Z,92029.34
2023-05-14T14:40:17.671Z,92023.19
2023-05-14T14:43:21.816Z,92021.13
2023-05-14T14:46:25.565Z,92010.34
2023-05-14T14:49:29.716Z,92017.72
2023-05-14T14:52:33.641Z,92014.94
2023-05-14T14:55:37.702Z,92017.53
2023-05-14T14:58:41.515Z,92026.22
2023-05-14T15:01:45.526Z,92016.13
2023-05-14T15:04:49.531Z,92012.97
2023-05-14T15:07:53.312Z,92010.75
2023-05-14T15:10:57.983Z,92015.22
2023-05-14T15:14:01.797Z,92006.03
2023-05-14T15:17:05.871Z,91994.44
2023-05-14T15:20:10.645Z,91999.75
2023-05-14T15:23:14.779Z,91998.88
2023-05-14T15:26:18.418Z,91994.16
2023-05-14T15:29:22.592Z,92002.34
2023-05-14T15:32:27.783Z,91991.38
2023-05-14T15:35:31.925Z,91995.16
2023-05-14T15:38:35.851Z,91994.72
2023-05-14T15:41:39.886Z,92002.34
2023-05-14T15:44:43.434Z,92000.03
2023-05-14T15:47:47.595Z,92007.59
2023-05-14T15:50:52.182Z,92006.78
2023-05-14T15:53:56.600Z,92013.78
2023-05-14T15:57:00.300Z,92016.47
2023-05-14T16:00:14.006Z,92024.78
2023-05-14T16:03:18.417Z,92024.53
2023-05-14T16:06:21.517Z,92014.28
2023-05-14T16:09:25.264Z,92012.81
2023-05-14T16:12:29.511Z,92019.34
2023-05-14T16:15:32.529Z,92015.69
2023-05-14T16:18:36.635Z,92022.16
2023-05-14T16:21:39.631Z,92014.81
2023-05-14T16:24:43.733Z,92004.81
2023-05-14T16:27:47.540Z,92018.78
2023-05-14T16:30:50.966Z,92015.81
2023-05-14T16:33:54.760Z,92017.91
2023-05-14T16:36:58.284Z,92018.59
2023-05-14T16:40:02.515Z,92018.47
2023-05-14T16:43:06.937Z,92010.75
2023-05-14T16:46:10.868Z,92004.00
2023-05-14T16:49:15.115Z,92009.44
2023-05-14T16:52:18.917Z,92013.81
2023-05-14T16:55:23.118Z,92012.94
2023-05-14T16:58:26.656Z,92004.13
2023-05-14T17:01:30.795Z,92005.34
2023-05-14T17:04:38.936Z,92009.38
2023-05-14T17:07:42.728Z,92010.63
2023-05-14T17:10:46.466Z,92012.31
2023-05-14T17:13:50.514Z,92014.09
2023-05-14T17:16:54.869Z,92015.88
2023-05-14T17:19:59.141Z,92008.66
2023-05-14T17:23:03.060Z,92016.38
2023-05-14T17:26:07.135Z,92013.19
2023-05-14T17:29:10.769Z,92008.47
2023-05-14T17:32:14.775Z,92013.81
2023-05-14T17:35:18.161Z,92013.56
2023-05-14T17:38:22.277Z,92010.84
2023-05-14T17:41:26.036Z,92007.06
2023-05-14T17:44:31.008Z,91998.38
2023-05-14T17:47:34.701Z,91995.97
2023-05-14T17:50:40.169Z,92000.38
2023-05-14T17:53:43.199Z,91993.41
2023-05-14T17:56:49.047Z,91992.53
2023-05-14T17:59:52.709Z,91984.59
2023-05-14T18:02:56.135Z,91982.31
2023-05-14T18:06:00.234Z,91993.31
2023-05-14T18:09:04.480Z,91990.56
2023-05-14T18:12:08.158Z,91991.84
2023-05-14T18:15:11.719Z,91997.56
2023-05-14T18:18:17.684Z,91986.97
2023-05-14T18:21:21.838Z,91995.50
2023-05-14T18:24:25.550Z,91996.03
2023-05-14T18:27:29.023Z,91995.56
2023-05-14T18:30:32.084Z,91995.19
2023-05-14T18:33:36.003Z,91994.91
2023-05-14T18:36:39.987Z,91993.47
2023-05-14T18:39:44.064Z,91992.34
2023-05-14T18:42:47.461Z,91997.19
2023-05-14T18:45:51.621Z,91995.63
2023-05-14T18:48:57.068Z,92003.97
2023-05-14T18:52:01.105Z,91994.69
2023-05-14T18:55:05.027Z,91996.63
2023-05-14T18:58:09.229Z,91990.63
2023-05-14T19:01:13.002Z,92004.81
2023-05-14T19:04:17.125Z,92004.81
2023-05-14T19:07:21.134Z,91998.66
2023-05-14T19:10:25.359Z,92014.97
2023-05-14T19:13:29.232Z,92007.59
2023-05-14T19:16:33.228Z,92003.53
2023-05-14T19:19:37.828Z,92007.75
2023-05-14T19:22:41.930Z,92010.81
2023-05-14T19:25:45.909Z,92017.22
2023-05-14T19:28:49.253Z,91998.84
2023-05-14T19:31:53.111Z,92006.63
2023-05-14T19:34:56.882Z,92005.38
2023-05-14T19:38:00.691Z,92014.00
2023-05-14T19:41:04.466Z,92024.16
2023-05-14T19:44:08.409Z,92020.31
2023-05-14T19:47:12.328Z,92024.44
2023-05-14T19:50:16.568Z,92019.56
2023-05-14T19:53:20.218Z,92020.69
2023-05-14T19:56:25.720Z,92023.53
2023-05-14T19:59:31.141Z,92026.41
2023-05-14T20:02:35.029Z,92041.03
2023-05-14T20:05:38.913Z,92020.53
2023-05-14T20:08:42.962Z,92041.94
2023-05-14T20:11:46.016Z,92038.78
2023-05-14T20:14:49.765Z,92036.00
2023-05-14T20:17:53.939Z,92036.38
2023-05-14T20:20:57.808Z,92033.06
2023-05-14T20:24:01.716Z,92033.84
2023-05-14T20:27:06.033Z,92022.66
2023-05-14T20:30:10.228Z,92030.06
2023-05-14T20:33:14.254Z,92019.97
2023-05-14T20:36:18.278Z,92029.25
2023-05-14T20:39:21.992Z,92022.88
2023-05-14T20:42:26.671Z,92033.59
2023-05-14T20:45:30.825Z,92024.06
2023-05-14T20:48:34.690Z,92025.50
2023-05-14T20:51:38.410Z,92036.97
2023-05-14T20:54:42.805Z,92030.00
2023-05-14T20:57:46.938Z,92033.03
2023-05-14T21:00:50.866Z,92032.50
2023-05-14T21:03:54.675Z,92037.34
2023-05-14T21:06:58.667Z,92040.34
2023-05-14T21:10:02.322Z,92044.19
2023-05-14T21:13:07.735Z,92043.81
2023-05-14T21:16:12.415Z,92050.00
2023-05-14T21:19:16.257Z,92059.22
2023-05-14T21:22:19.988Z,92055.19
2023-05-14T21:25:24.346Z,92063.47
2023-05-14T21:28:28.502Z,92070.59
2023-05-14T21:31:32.659Z,92054.03
2023-05-14T21:34:36.487Z,92056.47
2023-05-14T21:37:40.812Z,92051.84
2023-05-14T21:40:44.552Z,92062.41
2023-05-14T21:43:48.336Z,92057.91
2023-05-14T21:46:52.054Z,92058.38
2023-05-14T21:49:56.582Z,92056.34
2023-05-14T21:53:00.325Z,92059.34
2023-05-14T21:56:04.436Z,92043.66
2023-05-14T21:59:07.451Z,92057.97
2023-05-14T22:02:11.360Z,92051.84
2023-05-14T22:05:15.151Z,92055.41
2023-05-14T22:08:18.661Z,92053.72
2023-05-14T22:11:22.430Z,92054.13
2023-05-14T22:14:28.132Z,92044.38
2023-05-14T22:17:31.897Z,92053.38
2023-05-14T22:20:35.724Z,92049.03
2023-05-14T22:23:39.961Z,92054.28
2023-05-14T22:26:43.703Z,92040.63
2023-05-14T22:29:47.063Z,92045.66
2023-05-14T22:32:51.314Z,92043.75
2023-05-14T22:35:54.715Z,92055.28
2023-05-14T22:38:58.869Z,92063.34
2023-05-14T22:42:02.566Z,92050.41
2023-05-14T22:45:06.870Z,92058.53
2023-05-14T22:48:10.576Z,92041.69
2023-05-14T22:51:14.538Z,92032.25
2023-05-14T22:54:18.415Z,92041.13
2023-05-14T22:57:22.763Z,92038.25
2023-05-14T23:00:26.453Z,92043.69
2023-05-14T23:03:30.718Z,92040.50
2023-05-14T23:06:34.049Z,92042.56
2023-05-14T23:09:38.033Z,92028.28
2023-05-14T23:12:41.612Z,92025.59
2023-05-14T23:15:45.586Z,92026.03
2023-05-14T23:18:49.388Z,92041.00
2023-05-14T23:21:53.615Z,92020.84
2023-05-14T23:24:56.959Z,92029.06
2023-05-14T23:28:00.542Z,92033.91
2023-05-14T23:31:04.302Z,92034.28
2023-05-14T23:34:08.242Z,92030.09
2023-05-14T23:37:12.100Z,92042.38
2023-05-14T23:40:16.758Z,92024.69
2023-05-14T23:43:20.487Z,92041.25
2023-05-14T23:46:25.067Z,92050.25
2023-05-14T23:49:28.419Z,92041.41
2023-05-14T23:52:32.364Z,92041.63
2023-05-14T23:55:36.381Z,92049.34
2023-05-14T23:58:40.623Z,92052.59
